KMWC/MWC METAR and TAF weather

Enter ICAO airport designator
Station Type Date Time Source
KMWC METAR 2020/09/25 06:35 UTC NOAA

KMWC 250635Z AUTO 00000KT 10SM SCT065 16/12 A2993 RMK AO2


Station Type Date Time Source
KMWC Decoded METAR 2020/09/25 06:35 UTC NOAA

Milwaukee / Timmerman, WI, United States (KMWC) 43-07N 088-02W
Sep 25, 2020 - 02:35 AM EDT / 2020.09.25 0635 UTC
Wind: Calm:0
Visibility: 10 mile(s):0
Sky conditions: partly cloudy
Temperature: 60 F (16 C)
Dew Point: 53 F (12 C)
Relative Humidity: 77%
Pressure (altimeter): 29.93 in. Hg (1013 hPa)
ob: KMWC 250635Z AUTO 00000KT 10SM SCT065 16/12 A2993 RMK AO2
cycle: 6

Station Type Date Time Source
KMWC TAF UTC NOAA

Error!

Example: see airport list